sensor_id;sensor_type;location;lat;lon;timestamp;temperature;humidity
62991;DHT22;49084;48.204;16.202;2022-09-29T00:00:15;11.40;99.90
62991;DHT22;49084;48.204;16.202;2022-09-29T00:02:41;11.40;99.90
62991;DHT22;49084;48.204;16.202;2022-09-29T00:05:07;11.40;99.90
62991;DHT22;49084;48.204;16.202;2022-09-29T00:07:32;11.40;99.90
62991;DHT22;49084;48.204;16.202;2022-09-29T00:09:58;11.40;99.90
62991;DHT22;49084;48.204;16.202;2022-09-29T00:12:24;11.30;99.90
62991;DHT22;49084;48.204;16.202;2022-09-29T00:14:50;11.30;99.90
62991;DHT22;49084;48.204;16.202;2022-09-29T00:17:16;11.30;99.90
62991;DHT22;49084;48.204;16.202;2022-09-29T00:19:42;11.30;99.90
62991;DHT22;49084;48.204;16.202;2022-09-29T00:22:07;11.30;99.90
62991;DHT22;49084;48.204;16.202;2022-09-29T00:24:33;11.30;99.90
62991;DHT22;49084;48.204;16.202;2022-09-29T00:26:59;11.30;99.90
62991;DHT22;49084;48.204;16.202;2022-09-29T00:29:25;11.30;99.90
62991;DHT22;49084;48.204;16.202;2022-09-29T00:31:51;11.30;99.90
62991;DHT22;49084;48.204;16.202;2022-09-29T00:34:17;11.30;99.90
62991;DHT22;49084;48.204;16.202;2022-09-29T00:36:43;11.30;99.90
62991;DHT22;49084;48.204;16.202;2022-09-29T00:39:08;11.30;99.90
62991;DHT22;49084;48.204;16.202;2022-09-29T00:41:36;11.30;99.90
62991;DHT22;49084;48.204;16.202;2022-09-29T00:49:23;11.20;99.90
62991;DHT22;49084;48.204;16.202;2022-09-29T00:52:07;11.20;99.90
62991;DHT22;49084;48.204;16.202;2022-09-29T00:54:39;11.20;99.90
62991;DHT22;49084;48.204;16.202;2022-09-29T00:57:07;11.20;99.90
62991;DHT22;49084;48.204;16.202;2022-09-29T01:02:43;11.10;99.90
62991;DHT22;49084;48.204;16.202;2022-09-29T01:05:16;11.00;99.90
62991;DHT22;49084;48.204;16.202;2022-09-29T01:07:43;11.00;99.90
62991;DHT22;49084;48.204;16.202;2022-09-29T01:10:11;10.90;99.90
62991;DHT22;49084;48.204;16.202;2022-09-29T01:12:38;10.90;99.90
62991;DHT22;49084;48.204;16.202;2022-09-29T01:15:04;10.80;99.90
62991;DHT22;49084;48.204;16.202;2022-09-29T01:17:30;10.80;99.90
62991;DHT22;49084;48.204;16.202;2022-09-29T01:20:18;10.80;99.90
62991;DHT22;49084;48.204;16.202;2022-09-29T01:22:59;10.80;99.90
62991;DHT22;49084;48.204;16.202;2022-09-29T01:29:00;10.70;99.90
62991;DHT22;49084;48.204;16.202;2022-09-29T01:31:43;10.70;99.90
62991;DHT22;49084;48.204;16.202;2022-09-29T01:40:26;10.60;99.90
62991;DHT22;49084;48.204;16.202;2022-09-29T01:43:04;10.60;99.90
62991;DHT22;49084;48.204;16.202;2022-09-29T01:45:35;10.60;99.90
62991;DHT22;49084;48.204;16.202;2022-09-29T01:48:07;10.50;99.90
62991;DHT22;49084;48.204;16.202;2022-09-29T01:50:46;10.50;99.90
62991;DHT22;49084;48.204;16.202;2022-09-29T01:53:19;10.50;99.90
62991;DHT22;49084;48.204;16.202;2022-09-29T01:55:51;10.50;99.90
62991;DHT22;49084;48.204;16.202;2022-09-29T01:58:24;10.40;99.90
62991;DHT22;49084;48.204;16.202;2022-09-29T02:00:56;10.40;99.90
62991;DHT22;49084;48.204;16.202;2022-09-29T02:03:30;10.30;99.90
62991;DHT22;49084;48.204;16.202;2022-09-29T02:06:07;10.30;99.90
62991;DHT22;49084;48.204;16.202;2022-09-29T02:08:39;10.30;99.90
62991;DHT22;49084;48.204;16.202;2022-09-29T02:11:11;10.30;99.90
62991;DHT22;49084;48.204;16.202;2022-09-29T02:13:56;10.30;99.90
62991;DHT22;49084;48.204;16.202;2022-09-29T02:16:29;10.30;99.90
62991;DHT22;49084;48.204;16.202;2022-09-29T02:19:07;10.30;99.90
62991;DHT22;49084;48.204;16.202;2022-09-29T02:21:35;10.30;99.90
62991;DHT22;49084;48.204;16.202;2022-09-29T02:24:00;10.30;99.90
62991;DHT22;49084;48.204;16.202;2022-09-29T02:26:30;10.30;99.90
62991;DHT22;49084;48.204;16.202;2022-09-29T02:29:00;10.30;99.90
62991;DHT22;49084;48.204;16.202;2022-09-29T02:31:26;10.30;99.90
62991;DHT22;49084;48.204;16.202;2022-09-29T02:33:52;10.30;99.90
62991;DHT22;49084;48.204;16.202;2022-09-29T02:42:00;10.30;99.90
62991;DHT22;49084;48.204;16.202;2022-09-29T02:50:18;10.20;99.90
62991;DHT22;49084;48.204;16.202;2022-09-29T02:58:06;10.20;99.90
62991;DHT22;49084;48.204;16.202;2022-09-29T03:00:35;10.20;99.90
62991;DHT22;49084;48.204;16.202;2022-09-29T03:03:01;10.20;99.90
62991;DHT22;49084;48.204;16.202;2022-09-29T03:05:27;10.20;99.90
62991;DHT22;49084;48.204;16.202;2022-09-29T03:07:53;10.10;99.90
62991;DHT22;49084;48.204;16.202;2022-09-29T03:10:18;10.10;99.90
62991;DHT22;49084;48.204;16.202;2022-09-29T03:12:44;10.10;99.90
62991;DHT22;49084;48.204;16.202;2022-09-29T03:15:11;10.10;99.90
62991;DHT22;49084;48.204;16.202;2022-09-29T03:17:37;10.10;99.90
62991;DHT22;49084;48.204;16.202;2022-09-29T03:20:03;10.00;99.90
62991;DHT22;49084;48.204;16.202;2022-09-29T03:22:30;10.00;99.90
62991;DHT22;49084;48.204;16.202;2022-09-29T03:24:55;10.00;99.90
62991;DHT22;49084;48.204;16.202;2022-09-29T03:27:21;9.90;99.90
62991;DHT22;49084;48.204;16.202;2022-09-29T03:29:47;10.00;99.90
62991;DHT22;49084;48.204;16.202;2022-09-29T03:32:13;9.90;99.90
62991;DHT22;49084;48.204;16.202;2022-09-29T03:34:38;9.90;99.90
62991;DHT22;49084;48.204;16.202;2022-09-29T03:37:04;9.90;99.90
62991;DHT22;49084;48.204;16.202;2022-09-29T03:39:30;9.90;99.90
62991;DHT22;49084;48.204;16.202;2022-09-29T03:41:55;9.90;99.90
62991;DHT22;49084;48.204;16.202;2022-09-29T03:44:21;9.90;99.90
62991;DHT22;49084;48.204;16.202;2022-09-29T03:46:47;9.90;99.90
62991;DHT22;49084;48.204;16.202;2022-09-29T03:49:13;9.80;99.90
62991;DHT22;49084;48.204;16.202;2022-09-29T03:51:40;9.80;99.90
62991;DHT22;49084;48.204;16.202;2022-09-29T03:54:06;9.80;99.90
62991;DHT22;49084;48.204;16.202;2022-09-29T03:56:33;9.80;99.90
62991;DHT22;49084;48.204;16.202;2022-09-29T03:58:58;9.80;99.90
62991;DHT22;49084;48.204;16.202;2022-09-29T04:01:24;9.80;99.90
62991;DHT22;49084;48.204;16.202;2022-09-29T04:03:50;9.80;99.90
62991;DHT22;49084;48.204;16.202;2022-09-29T04:06:16;9.80;99.90
62991;DHT22;49084;48.204;16.202;2022-09-29T04:08:41;9.80;99.90
62991;DHT22;49084;48.204;16.202;2022-09-29T04:11:08;9.80;99.90
62991;DHT22;49084;48.204;16.202;2022-09-29T04:13:34;9.80;99.90
62991;DHT22;49084;48.204;16.202;2022-09-29T04:16:01;9.80;99.90
62991;DHT22;49084;48.204;16.202;2022-09-29T04:18:27;9.80;99.90
62991;DHT22;49084;48.204;16.202;2022-09-29T04:20:53;9.80;99.90
62991;DHT22;49084;48.204;16.202;2022-09-29T04:23:19;9.80;99.90
62991;DHT22;49084;48.204;16.202;2022-09-29T04:25:45;9.80;99.90
62991;DHT22;49084;48.204;16.202;2022-09-29T04:28:11;9.70;99.90
62991;DHT22;49084;48.204;16.202;2022-09-29T04:30:38;9.70;99.90
62991;DHT22;49084;48.204;16.202;2022-09-29T04:33:03;9.70;99.90
62991;DHT22;49084;48.204;16.202;2022-09-29T04:35:29;9.70;99.90
62991;DHT22;49084;48.204;16.202;2022-09-29T04:37:55;9.70;99.90
62991;DHT22;49084;48.204;16.202;2022-09-29T04:40:22;9.70;99.90
62991;DHT22;49084;48.204;16.202;2022-09-29T04:46:37;9.70;99.90
62991;DHT22;49084;48.204;16.202;2022-09-29T04:49:08;9.60;99.90
62991;DHT22;49084;48.204;16.202;2022-09-29T04:51:33;9.60;99.90
62991;DHT22;49084;48.204;16.202;2022-09-29T04:53:59;9.60;99.90
62991;DHT22;49084;48.204;16.202;2022-09-29T04:56:26;9.60;99.90
62991;DHT22;49084;48.204;16.202;2022-09-29T04:58:58;9.60;99.90
62991;DHT22;49084;48.204;16.202;2022-09-29T05:01:24;9.60;99.90
62991;DHT22;49084;48.204;16.202;2022-09-29T05:07:27;9.60;99.90
62991;DHT22;49084;48.204;16.202;2022-09-29T05:20:11;9.50;99.90
62991;DHT22;49084;48.204;16.202;2022-09-29T05:22:37;9.60;99.90
62991;DHT22;49084;48.204;16.202;2022-09-29T05:25:03;9.60;99.90
62991;DHT22;49084;48.204;16.202;2022-09-29T06:00:14;9.60;99.90
62991;DHT22;49084;48.204;16.202;2022-09-29T06:02:40;9.60;99.90
62991;DHT22;49084;48.204;16.202;2022-09-29T06:05:06;9.50;99.90
62991;DHT22;49084;48.204;16.202;2022-09-29T06:07:31;9.40;99.90
62991;DHT22;49084;48.204;16.202;2022-09-29T06:09:57;9.40;99.90
62991;DHT22;49084;48.204;16.202;2022-09-29T06:12:23;9.30;99.90
62991;DHT22;49084;48.204;16.202;2022-09-29T06:18:21;9.30;99.90
62991;DHT22;49084;48.204;16.202;2022-09-29T06:24:12;9.40;99.90
62991;DHT22;49084;48.204;16.202;2022-09-29T06:30:05;9.40;99.90
62991;DHT22;49084;48.204;16.202;2022-09-29T06:36:34;9.60;99.90
62991;DHT22;49084;48.204;16.202;2022-09-29T06:39:24;9.70;99.90
62991;DHT22;49084;48.204;16.202;2022-09-29T06:41:50;9.80;99.90
62991;DHT22;49084;48.204;16.202;2022-09-29T06:44:23;10.00;99.90
62991;DHT22;49084;48.204;16.202;2022-09-29T06:46:50;10.00;99.90
62991;DHT22;49084;48.204;16.202;2022-09-29T06:49:16;10.10;99.90
62991;DHT22;49084;48.204;16.202;2022-09-29T06:51:43;10.20;99.90
62991;DHT22;49084;48.204;16.202;2022-09-29T06:54:10;10.20;99.90
62991;DHT22;49084;48.204;16.202;2022-09-29T06:56:36;10.40;99.90
62991;DHT22;49084;48.204;16.202;2022-09-29T06:59:02;10.40;99.90
62991;DHT22;49084;48.204;16.202;2022-09-29T07:01:28;10.40;99.90
62991;DHT22;49084;48.204;16.202;2022-09-29T07:03:54;10.30;99.90
62991;DHT22;49084;48.204;16.202;2022-09-29T07:06:19;10.40;99.90
62991;DHT22;49084;48.204;16.202;2022-09-29T07:08:45;10.40;99.90
62991;DHT22;49084;48.204;16.202;2022-09-29T07:11:11;10.40;99.90
62991;DHT22;49084;48.204;16.202;2022-09-29T07:13:37;10.40;99.90
62991;DHT22;49084;48.204;16.202;2022-09-29T07:18:32;10.50;99.90
62991;DHT22;49084;48.204;16.202;2022-09-29T07:20:59;10.50;99.90
62991;DHT22;49084;48.204;16.202;2022-09-29T07:23:25;10.60;99.90
62991;DHT22;49084;48.204;16.202;2022-09-29T07:25:51;10.60;99.90
62991;DHT22;49084;48.204;16.202;2022-09-29T07:28:17;10.80;99.90
62991;DHT22;49084;48.204;16.202;2022-09-29T07:30:43;10.90;99.90
62991;DHT22;49084;48.204;16.202;2022-09-29T07:33:09;11.10;99.90
62991;DHT22;49084;48.204;16.202;2022-09-29T07:35:35;11.20;99.90
62991;DHT22;49084;48.204;16.202;2022-09-29T07:38:00;11.30;99.90
62991;DHT22;49084;48.204;16.202;2022-09-29T07:40:26;11.50;99.90
62991;DHT22;49084;48.204;16.202;2022-09-29T07:42:53;11.40;99.90
62991;DHT22;49084;48.204;16.202;2022-09-29T07:45:19;11.30;99.90
62991;DHT22;49084;48.204;16.202;2022-09-29T07:47:45;11.30;99.90
62991;DHT22;49084;48.204;16.202;2022-09-29T07:50:11;11.20;99.90
62991;DHT22;49084;48.204;16.202;2022-09-29T07:52:37;11.30;99.90
62991;DHT22;49084;48.204;16.202;2022-09-29T07:55:03;11.30;99.90
62991;DHT22;49084;48.204;16.202;2022-09-29T07:57:29;11.50;99.90
62991;DHT22;49084;48.204;16.202;2022-09-29T07:59:55;11.60;99.90
62991;DHT22;49084;48.204;16.202;2022-09-29T08:02:23;11.70;99.90
62991;DHT22;49084;48.204;16.202;2022-09-29T08:04:49;11.80;99.90
62991;DHT22;49084;48.204;16.202;2022-09-29T08:07:15;11.80;99.90
62991;DHT22;49084;48.204;16.202;2022-09-29T08:09:40;11.80;99.90
62991;DHT22;49084;48.204;16.202;2022-09-29T08:12:07;11.90;99.90
62991;DHT22;49084;48.204;16.202;2022-09-29T08:14:33;12.10;99.90
62991;DHT22;49084;48.204;16.202;2022-09-29T08:16:59;12.30;99.90
62991;DHT22;49084;48.204;16.202;2022-09-29T08:19:25;12.70;99.90
62991;DHT22;49084;48.204;16.202;2022-09-29T08:21:52;13.00;99.90
62991;DHT22;49084;48.204;16.202;2022-09-29T08:24:18;13.30;99.90
62991;DHT22;49084;48.204;16.202;2022-09-29T08:26:43;13.30;99.90
62991;DHT22;49084;48.204;16.202;2022-09-29T08:29:13;13.30;99.90
62991;DHT22;49084;48.204;16.202;2022-09-29T08:31:39;13.50;99.90
62991;DHT22;49084;48.204;16.202;2022-09-29T08:34:05;13.50;99.90
62991;DHT22;49084;48.204;16.202;2022-09-29T08:36:31;13.40;99.90
62991;DHT22;49084;48.204;16.202;2022-09-29T08:38:57;13.30;99.90
62991;DHT22;49084;48.204;16.202;2022-09-29T08:44:26;13.40;99.90
62991;DHT22;49084;48.204;16.202;2022-09-29T08:52:25;14.30;99.90
62991;DHT22;49084;48.204;16.202;2022-09-29T08:55:19;14.20;99.90
62991;DHT22;49084;48.204;16.202;2022-09-29T08:57:47;14.30;99.90
62991;DHT22;49084;48.204;16.202;2022-09-29T09:00:16;14.40;99.90
62991;DHT22;49084;48.204;16.202;2022-09-29T09:16:59;15.30;99.90
62991;DHT22;49084;48.204;16.202;2022-09-29T09:27:25;15.10;99.90
62991;DHT22;49084;48.204;16.202;2022-09-29T09:30:04;14.80;99.90
62991;DHT22;49084;48.204;16.202;2022-09-29T09:32:35;14.60;99.90
62991;DHT22;49084;48.204;16.202;2022-09-29T09:38:05;14.60;99.90
62991;DHT22;49084;48.204;16.202;2022-09-29T09:40:49;15.20;99.90
62991;DHT22;49084;48.204;16.202;2022-09-29T09:43:23;16.40;99.90
62991;DHT22;49084;48.204;16.202;2022-09-29T09:45:56;17.00;99.90
62991;DHT22;49084;48.204;16.202;2022-09-29T09:48:34;17.70;99.90
62991;DHT22;49084;48.204;16.202;2022-09-29T09:51:17;18.50;98.70
62991;DHT22;49084;48.204;16.202;2022-09-29T09:53:47;18.50;95.70
62991;DHT22;49084;48.204;16.202;2022-09-29T09:59:13;19.20;92.50
62991;DHT22;49084;48.204;16.202;2022-09-29T10:01:40;19.50;92.40
62991;DHT22;49084;48.204;16.202;2022-09-29T10:04:10;20.20;89.00
62991;DHT22;49084;48.204;16.202;2022-09-29T10:06:36;20.70;82.80
62991;DHT22;49084;48.204;16.202;2022-09-29T10:09:02;21.20;78.10
62991;DHT22;49084;48.204;16.202;2022-09-29T10:11:30;21.30;74.20
62991;DHT22;49084;48.204;16.202;2022-09-29T10:14:12;21.10;71.70
62991;DHT22;49084;48.204;16.202;2022-09-29T10:19:50;21.70;69.20
62991;DHT22;49084;48.204;16.202;2022-09-29T10:22:13;21.80;66.10
62991;DHT22;49084;48.204;16.202;2022-09-29T10:24:39;21.80;65.70
62991;DHT22;49084;48.204;16.202;2022-09-29T10:27:05;21.50;66.60
62991;DHT22;49084;48.204;16.202;2022-09-29T10:29:40;20.50;66.00
62991;DHT22;49084;48.204;16.202;2022-09-29T10:32:09;19.80;67.80
62991;DHT22;49084;48.204;16.202;2022-09-29T10:34:40;20.20;67.50
62991;DHT22;49084;48.204;16.202;2022-09-29T10:39:50;22.50;62.80
62991;DHT22;49084;48.204;16.202;2022-09-29T10:42:32;22.60;59.00
62991;DHT22;49084;48.204;16.202;2022-09-29T10:45:17;22.70;60.00
62991;DHT22;49084;48.204;16.202;2022-09-29T10:50:31;23.00;58.70
62991;DHT22;49084;48.204;16.202;2022-09-29T10:52:59;22.60;53.80
62991;DHT22;49084;48.204;16.202;2022-09-29T10:55:34;22.40;57.60
62991;DHT22;49084;48.204;16.202;2022-09-29T11:01:09;22.00;56.30
62991;DHT22;49084;48.204;16.202;2022-09-29T11:03:38;21.90;57.10
62991;DHT22;49084;48.204;16.202;2022-09-29T11:06:10;22.10;57.10
62991;DHT22;49084;48.204;16.202;2022-09-29T11:11:36;22.50;55.10
62991;DHT22;49084;48.204;16.202;2022-09-29T11:14:03;23.00;54.80
62991;DHT22;49084;48.204;16.202;2022-09-29T11:16:36;24.30;52.40
62991;DHT22;49084;48.204;16.202;2022-09-29T11:19:03;25.00;52.00
62991;DHT22;49084;48.204;16.202;2022-09-29T11:21:34;25.50;51.10
62991;DHT22;49084;48.204;16.202;2022-09-29T11:29:32;23.70;51.80
62991;DHT22;49084;48.204;16.202;2022-09-29T11:42:58;21.20;56.30
62991;DHT22;49084;48.204;16.202;2022-09-29T11:45:37;21.00;58.40
62991;DHT22;49084;48.204;16.202;2022-09-29T11:51:23;19.70;61.80
62991;DHT22;49084;48.204;16.202;2022-09-29T11:56:54;20.40;59.20
62991;DHT22;49084;48.204;16.202;2022-09-29T11:59:34;20.80;55.50
62991;DHT22;49084;48.204;16.202;2022-09-29T12:02:27;20.90;56.60
62991;DHT22;49084;48.204;16.202;2022-09-29T12:05:17;21.00;58.00
62991;DHT22;49084;48.204;16.202;2022-09-29T12:16:29;22.10;55.40
62991;DHT22;49084;48.204;16.202;2022-09-29T12:19:07;21.20;57.60
62991;DHT22;49084;48.204;16.202;2022-09-29T12:21:38;21.60;57.40
62991;DHT22;49084;48.204;16.202;2022-09-29T12:24:13;22.20;57.10
62991;DHT22;49084;48.204;16.202;2022-09-29T12:26:40;23.20;56.30
62991;DHT22;49084;48.204;16.202;2022-09-29T12:31:53;23.40;55.00
62991;DHT22;49084;48.204;16.202;2022-09-29T12:37:21;23.90;54.30
62991;DHT22;49084;48.204;16.202;2022-09-29T12:45:43;26.20;51.20
62991;DHT22;49084;48.204;16.202;2022-09-29T12:56:34;24.20;53.00
62991;DHT22;49084;48.204;16.202;2022-09-29T13:01:53;21.70;56.30
62991;DHT22;49084;48.204;16.202;2022-09-29T13:04:51;20.50;59.50
62991;DHT22;49084;48.204;16.202;2022-09-29T13:07:41;19.50;62.50
62991;DHT22;49084;48.204;16.202;2022-09-29T13:10:22;19.10;63.40
62991;DHT22;49084;48.204;16.202;2022-09-29T13:15:50;18.80;66.60
62991;DHT22;49084;48.204;16.202;2022-09-29T13:21:00;19.00;68.20
62991;DHT22;49084;48.204;16.202;2022-09-29T13:23:39;18.00;68.10
62991;DHT22;49084;48.204;16.202;2022-09-29T13:28:42;17.40;71.10
62991;DHT22;49084;48.204;16.202;2022-09-29T13:31:10;17.40;70.60
62991;DHT22;49084;48.204;16.202;2022-09-29T13:33:38;18.00;69.60
62991;DHT22;49084;48.204;16.202;2022-09-29T13:36:04;18.90;65.80
62991;DHT22;49084;48.204;16.202;2022-09-29T13:38:36;19.20;64.90
62991;DHT22;49084;48.204;16.202;2022-09-29T13:41:12;19.70;64.00
62991;DHT22;49084;48.204;16.202;2022-09-29T13:49:13;20.20;63.40
62991;DHT22;49084;48.204;16.202;2022-09-29T13:51:42;20.70;63.10
62991;DHT22;49084;48.204;16.202;2022-09-29T13:57:21;21.00;61.40
62991;DHT22;49084;48.204;16.202;2022-09-29T14:02:45;20.70;62.20
62991;DHT22;49084;48.204;16.202;2022-09-29T14:10:48;19.80;64.50
62991;DHT22;49084;48.204;16.202;2022-09-29T14:14:01;19.10;65.00
62991;DHT22;49084;48.204;16.202;2022-09-29T14:16:31;18.80;67.40
62991;DHT22;49084;48.204;16.202;2022-09-29T14:21:51;19.20;67.20
62991;DHT22;49084;48.204;16.202;2022-09-29T14:30:23;19.50;67.30
62991;DHT22;49084;48.204;16.202;2022-09-29T14:40:38;18.30;71.00
62991;DHT22;49084;48.204;16.202;2022-09-29T14:43:15;17.90;71.00
62991;DHT22;49084;48.204;16.202;2022-09-29T14:57:27;16.40;77.70
62991;DHT22;49084;48.204;16.202;2022-09-29T15:00:19;16.30;78.90
62991;DHT22;49084;48.204;16.202;2022-09-29T15:02:47;16.10;80.20
62991;DHT22;49084;48.204;16.202;2022-09-29T15:05:38;16.00;81.00
62991;DHT22;49084;48.204;16.202;2022-09-29T15:08:27;15.90;90.20
62991;DHT22;49084;48.204;16.202;2022-09-29T15:10:53;15.60;86.20
62991;DHT22;49084;48.204;16.202;2022-09-29T15:13:26;15.60;88.50
62991;DHT22;49084;48.204;16.202;2022-09-29T15:16:05;15.60;88.40
62991;DHT22;49084;48.204;16.202;2022-09-29T15:24:42;15.60;92.20
62991;DHT22;49084;48.204;16.202;2022-09-29T15:27:12;15.50;93.40
62991;DHT22;49084;48.204;16.202;2022-09-29T15:29:39;15.50;93.20
62991;DHT22;49084;48.204;16.202;2022-09-29T15:32:29;15.50;94.40
62991;DHT22;49084;48.204;16.202;2022-09-29T15:35:04;15.40;96.50
62991;DHT22;49084;48.204;16.202;2022-09-29T15:37:55;15.30;97.00
62991;DHT22;49084;48.204;16.202;2022-09-29T15:40:23;15.10;97.70
62991;DHT22;49084;48.204;16.202;2022-09-29T15:42:50;15.00;99.60
62991;DHT22;49084;48.204;16.202;2022-09-29T15:45:22;14.90;99.90
62991;DHT22;49084;48.204;16.202;2022-09-29T15:48:04;14.80;99.90
62991;DHT22;49084;48.204;16.202;2022-09-29T15:50:39;14.70;99.90
62991;DHT22;49084;48.204;16.202;2022-09-29T15:53:06;14.50;99.90
62991;DHT22;49084;48.204;16.202;2022-09-29T15:55:33;14.40;99.90
62991;DHT22;49084;48.204;16.202;2022-09-29T15:57:59;14.30;99.90
62991;DHT22;49084;48.204;16.202;2022-09-29T16:03:28;14.10;99.90
62991;DHT22;49084;48.204;16.202;2022-09-29T16:06:16;13.90;99.90
62991;DHT22;49084;48.204;16.202;2022-09-29T16:08:46;13.80;99.90
62991;DHT22;49084;48.204;16.202;2022-09-29T16:11:25;13.80;99.90
62991;DHT22;49084;48.204;16.202;2022-09-29T16:14:05;13.70;99.90
62991;DHT22;49084;48.204;16.202;2022-09-29T16:16:40;13.70;99.90
62991;DHT22;49084;48.204;16.202;2022-09-29T16:19:17;13.60;99.90
62991;DHT22;49084;48.204;16.202;2022-09-29T16:21:49;13.50;99.90
62991;DHT22;49084;48.204;16.202;2022-09-29T16:24:20;13.50;99.90
62991;DHT22;49084;48.204;16.202;2022-09-29T16:31:42;13.30;99.90
62991;DHT22;49084;48.204;16.202;2022-09-29T16:34:30;13.30;99.90
62991;DHT22;49084;48.204;16.202;2022-09-29T16:39:42;13.20;99.90
62991;DHT22;49084;48.204;16.202;2022-09-29T16:42:26;13.10;99.90
62991;DHT22;49084;48.204;16.202;2022-09-29T16:44:53;13.00;99.90
62991;DHT22;49084;48.204;16.202;2022-09-29T16:47:22;13.00;99.90
62991;DHT22;49084;48.204;16.202;2022-09-29T16:50:11;13.00;99.90
62991;DHT22;49084;48.204;16.202;2022-09-29T16:52:43;13.00;99.90
62991;DHT22;49084;48.204;16.202;2022-09-29T16:55:17;13.00;99.90
62991;DHT22;49084;48.204;16.202;2022-09-29T16:58:04;13.00;99.90
62991;DHT22;49084;48.204;16.202;2022-09-29T17:00:33;13.00;99.90
62991;DHT22;49084;48.204;16.202;2022-09-29T17:03:00;12.90;99.90
62991;DHT22;49084;48.204;16.202;2022-09-29T17:05:33;12.90;99.90
62991;DHT22;49084;48.204;16.202;2022-09-29T17:08:04;12.80;99.90
62991;DHT22;49084;48.204;16.202;2022-09-29T17:10:31;12.70;99.90
62991;DHT22;49084;48.204;16.202;2022-09-29T17:12:57;12.60;99.90
62991;DHT22;49084;48.204;16.202;2022-09-29T17:15:24;12.60;99.90
62991;DHT22;49084;48.204;16.202;2022-09-29T17:17:50;12.60;99.90
62991;DHT22;49084;48.204;16.202;2022-09-29T17:20:21;12.60;99.90
62991;DHT22;49084;48.204;16.202;2022-09-29T17:22:54;12.60;99.90
62991;DHT22;49084;48.204;16.202;2022-09-29T17:25:20;12.50;99.90
62991;DHT22;49084;48.204;16.202;2022-09-29T17:27:46;12.50;99.90
62991;DHT22;49084;48.204;16.202;2022-09-29T17:30:30;12.50;99.90
62991;DHT22;49084;48.204;16.202;2022-09-29T17:32:57;12.50;99.90
62991;DHT22;49084;48.204;16.202;2022-09-29T17:35:28;12.50;99.90
62991;DHT22;49084;48.204;16.202;2022-09-29T17:37:54;12.40;99.90
62991;DHT22;49084;48.204;16.202;2022-09-29T17:43:17;12.30;99.90
62991;DHT22;49084;48.204;16.202;2022-09-29T17:45:43;12.40;99.90
62991;DHT22;49084;48.204;16.202;2022-09-29T17:48:10;12.40;99.90
62991;DHT22;49084;48.204;16.202;2022-09-29T17:50:50;12.30;99.90
62991;DHT22;49084;48.204;16.202;2022-09-29T17:53:18;12.30;99.90
62991;DHT22;49084;48.204;16.202;2022-09-29T17:55:46;12.30;99.90
62991;DHT22;49084;48.204;16.202;2022-09-29T17:58:14;12.20;99.90
62991;DHT22;49084;48.204;16.202;2022-09-29T18:00:42;12.10;99.90
62991;DHT22;49084;48.204;16.202;2022-09-29T18:03:10;12.10;99.90
62991;DHT22;49084;48.204;16.202;2022-09-29T18:05:41;12.00;99.90
62991;DHT22;49084;48.204;16.202;2022-09-29T18:08:11;11.80;99.90
62991;DHT22;49084;48.204;16.202;2022-09-29T18:10:57;11.70;99.90
62991;DHT22;49084;48.204;16.202;2022-09-29T18:13:25;11.50;99.90
62991;DHT22;49084;48.204;16.202;2022-09-29T18:15:52;11.50;99.90
62991;DHT22;49084;48.204;16.202;2022-09-29T18:18:21;11.40;99.90
62991;DHT22;49084;48.204;16.202;2022-09-29T18:20:47;11.40;99.90
62991;DHT22;49084;48.204;16.202;2022-09-29T18:23:15;11.30;99.90
62991;DHT22;49084;48.204;16.202;2022-09-29T18:25:42;11.20;99.90
62991;DHT22;49084;48.204;16.202;2022-09-29T18:28:10;11.10;99.90
62991;DHT22;49084;48.204;16.202;2022-09-29T18:30:37;11.00;99.90
62991;DHT22;49084;48.204;16.202;2022-09-29T18:33:11;10.90;99.90
62991;DHT22;49084;48.204;16.202;2022-09-29T18:35:40;10.80;99.90
62991;DHT22;49084;48.204;16.202;2022-09-29T18:38:06;10.80;99.90
62991;DHT22;49084;48.204;16.202;2022-09-29T18:40:32;10.70;99.90
62991;DHT22;49084;48.204;16.202;2022-09-29T18:42:59;10.70;99.90
62991;DHT22;49084;48.204;16.202;2022-09-29T18:45:30;10.70;99.90
62991;DHT22;49084;48.204;16.202;2022-09-29T18:47:56;10.70;99.90
62991;DHT22;49084;48.204;16.202;2022-09-29T18:50:36;10.60;99.90
62991;DHT22;49084;48.204;16.202;2022-09-29T18:53:09;10.60;99.90
62991;DHT22;49084;48.204;16.202;2022-09-29T18:55:40;10.50;99.90
62991;DHT22;49084;48.204;16.202;2022-09-29T18:58:09;10.40;99.90
62991;DHT22;49084;48.204;16.202;2022-09-29T19:00:40;10.40;99.90
62991;DHT22;49084;48.204;16.202;2022-09-29T19:03:07;10.30;99.90
62991;DHT22;49084;48.204;16.202;2022-09-29T19:05:34;10.30;99.90
62991;DHT22;49084;48.204;16.202;2022-09-29T19:08:02;10.30;99.90
62991;DHT22;49084;48.204;16.202;2022-09-29T19:10:29;10.30;99.90
62991;DHT22;49084;48.204;16.202;2022-09-29T19:13:00;10.30;99.90
62991;DHT22;49084;48.204;16.202;2022-09-29T19:15:30;10.40;99.90
62991;DHT22;49084;48.204;16.202;2022-09-29T19:17:56;10.40;99.90
62991;DHT22;49084;48.204;16.202;2022-09-29T19:20:26;10.40;99.90
62991;DHT22;49084;48.204;16.202;2022-09-29T19:22:53;10.50;99.90
62991;DHT22;49084;48.204;16.202;2022-09-29T19:25:25;10.50;99.90
62991;DHT22;49084;48.204;16.202;2022-09-29T19:27:54;10.50;99.90
62991;DHT22;49084;48.204;16.202;2022-09-29T19:30:25;10.60;99.90
62991;DHT22;49084;48.204;16.202;2022-09-29T19:32:51;10.60;99.90
62991;DHT22;49084;48.204;16.202;2022-09-29T19:35:20;10.70;99.90
62991;DHT22;49084;48.204;16.202;2022-09-29T19:37:47;10.70;99.90
62991;DHT22;49084;48.204;16.202;2022-09-29T19:40:20;10.80;99.90
62991;DHT22;49084;48.204;16.202;2022-09-29T19:42:46;10.80;99.90
62991;DHT22;49084;48.204;16.202;2022-09-29T19:45:13;10.70;99.90
62991;DHT22;49084;48.204;16.202;2022-09-29T19:47:39;10.70;99.90
62991;DHT22;49084;48.204;16.202;2022-09-29T19:50:05;10.70;99.90
62991;DHT22;49084;48.204;16.202;2022-09-29T19:52:50;10.70;99.90
62991;DHT22;49084;48.204;16.202;2022-09-29T19:55:16;10.70;99.90
62991;DHT22;49084;48.204;16.202;2022-09-29T19:57:42;10.70;99.90
62991;DHT22;49084;48.204;16.202;2022-09-29T20:00:10;10.70;99.90
62991;DHT22;49084;48.204;16.202;2022-09-29T20:02:36;10.70;99.90
62991;DHT22;49084;48.204;16.202;2022-09-29T20:05:06;10.70;99.90
62991;DHT22;49084;48.204;16.202;2022-09-29T20:07:34;10.70;99.90
62991;DHT22;49084;48.204;16.202;2022-09-29T20:10:00;10.80;99.90
62991;DHT22;49084;48.204;16.202;2022-09-29T20:12:27;10.80;99.90
62991;DHT22;49084;48.204;16.202;2022-09-29T20:14:53;10.80;99.90